Deeth, Nevada
Current Conditions -  °F | °C
As of 7:29 PM on Sunday 21 Dec 2014 (Local Time) from KEKO Reporting Station
Light Rain Light Rain  
Wind Chill: 43°   Ceiling: 1700
Heat Index: 46°   Visibility: 10mi
Dew Point: 43°   Wind: 6mph
Humidity: 89%   Direction: 220°SW
Pressure: 30.1"   Gusts: NA
Location:  41.07°N, 115.28°W
Report Text: KEKO 220329Z AUTO 22005KT 10SM -RA BKN017 OVC035 08/06 A3010 RMK AO2 RAB22 P0001 T00780061
Loading
Personal Weather Stations






























Interactive Weather Map New forecast layout! Learn more

10-Day Weather Forecast

Advertisements
Track Severe Weather on mobile